Grande Prairie Airport
CYQU : now visible

Airfield :











YOU CAN JOIN US ON...

 
LOGIN :

Register | Disclaimer

   EN    FR    IT 

 









Legend :    VFR   Marginal VFR   IFR   Intensive IFR   Very Intensive IFR
Visi :
Ceiling :
>= 8 km
>= 3000ft
5 to 8 km
1000 to 3000 ft
1500m to 5 km
500 to 1000 ft
800 to 1500m
200 to 500 ft
< 800m
< 200 ft
Symbols :   Thunderstorms  Fog  Heavy snow  Heavy precipitations  Wind > 20 kt






- Airport Elevation : 2195 ft
- IATA code : YQU


CYQU - Grande Prairie

CURRENT METAR :
  • 261200Z 11003KT 25SM -SHRA BKN058 OVC072 09/08 A2958 RMK CU5AC3 SLP030 DENSITY ALT 2500FT

EXPIRED METARs :
  • 261100Z 00000KT 25SM -SHRA BKN052 OVC070 10/08 A2960 RMK CU6AC2 SLP034 DENSITY ALT 2500FT
  • 261000Z 07003KT 060V130 25SM -SHRA BKN065 BKN080 11/07 A2961 RMK CU5AC2 SLP038 DENSITY ALT 2600FT

TAF TAF CYQU
Valid from the 26 at 07:00 until the 26 at 19:00 UTC


260638Z 2607/2619 VRB03KT P6SM BKN070
TEMPO 2607/2612 P6SM VCSH OVC070
FM261200 12006KT P6SM OVC050
TEMPO 2612/2616 P6SM -SHRA
FM261600 VRB03KT P6SM SCT050 BKN120 RMK NXT FCST BY 261300Z
CZEG FIR / North America



MET'MAP, your aeronautical weather chart ! - Copyright ORBIFLY December 2007 - Disclaimer

ORBIFLY MET'MAP TEAM :

Programming & Development : Alexandra Zaïnal
Concept & original design : Baudouin d'Aumeries
Assistance for programming : Marc-Olivier Méhu
Technical & hardware support : Manuel Goepfert

Contact : metmap@orbifly.com




SOURCES & CREDITS :

   NOAA       Earth
Advisory